EWG7KV EDLW-EDDN
Flight info
| Callsign | EWG7KV |
|---|---|
| Flight time | N/A |
| Altitude | 23000 |
| Route | GMH8Q GMH Z841 BIGSU L603 TESGA Z719 ETOLU Z723 KOMIB T193 ERTES T194 DODAS DODAS1T |
| Aircraft | A319/M-SDE3FGHIRWY/LB1 |
Departure
| Time | 2026-04-30 18:10 |
|---|---|
| Airport | Dortmund Airport (EDLW) |
Arrival
| Time | N/A |
|---|---|
| Airport | Nuremberg Airport (EDDN) |
| Time | Latitude | Longitude | Altitude | Speed | Heading |
|---|---|---|---|---|---|
| 2026-04-30 17:39 | 51.51606 | 7.61340 | 434 ft | 0 kts | 332° |
| 2026-04-30 18:05 | 51.51630 | 7.61187 | 425 ft | 13 kts | 240° |
| 2026-04-30 18:06 | 51.51375 | 7.60440 | 420 ft | 13 kts | 243° |
| 2026-04-30 18:07 | 51.51363 | 7.60343 | 419 ft | 11 kts | 282° |
| 2026-04-30 18:08 | 51.51505 | 7.60286 | 413 ft | 0 kts | 61° |
| 2026-04-30 18:09 | 51.51974 | 7.61627 | 413 ft | 131 kts | 61° |
| 2026-04-30 18:10 | 51.53813 | 7.67026 | 2456 ft | 163 kts | 65° |
| 2026-04-30 18:11 | 51.56048 | 7.74346 | 4041 ft | 235 kts | 89° |
| 2026-04-30 18:11 | 51.52609 | 7.79487 | 6780 ft | 260 kts | 168° |
| 2026-04-30 18:12 | 51.47283 | 7.76318 | 9560 ft | 283 kts | 198° |
| 2026-04-30 18:13 | 51.43404 | 7.75063 | 11053 ft | 291 kts | 173° |
| 2026-04-30 18:13 | 51.37034 | 7.78086 | 12197 ft | 341 kts | 157° |
| 2026-04-30 18:14 | 51.32475 | 7.80619 | 13589 ft | 352 kts | 157° |
| 2026-04-30 18:15 | 51.25407 | 7.84532 | 15570 ft | 364 kts | 157° |
| 2026-04-30 18:15 | 51.18128 | 7.88666 | 17459 ft | 375 kts | 153° |
| 2026-04-30 18:16 | 51.13757 | 7.93158 | 18722 ft | 377 kts | 139° |
| 2026-04-30 18:16 | 51.09539 | 7.98242 | 19875 ft | 383 kts | 139° |
| 2026-04-30 18:17 | 51.07401 | 8.00810 | 20464 ft | 387 kts | 140° |
| 2026-04-30 18:17 | 51.05246 | 8.03391 | 21043 ft | 390 kts | 140° |
| 2026-04-30 18:17 | 51.00866 | 8.08617 | 22105 ft | 398 kts | 140° |
| 2026-04-30 18:18 | 50.98642 | 8.11263 | 22618 ft | 401 kts | 140° |
| 2026-04-30 18:18 | 50.96404 | 8.13926 | 23146 ft | 403 kts | 140° |
| 2026-04-30 18:18 | 50.94184 | 8.16569 | 23334 ft | 405 kts | 140° |
| 2026-04-30 18:18 | 50.91883 | 8.19311 | 23366 ft | 411 kts | 140° |
| 2026-04-30 18:19 | 50.89620 | 8.22001 | 23366 ft | 413 kts | 140° |
| 2026-04-30 18:19 | 50.87323 | 8.24728 | 23363 ft | 413 kts | 140° |
| 2026-04-30 18:19 | 50.85013 | 8.27439 | 23361 ft | 414 kts | 142° |
| 2026-04-30 18:19 | 50.82515 | 8.29759 | 23364 ft | 417 kts | 148° |
| 2026-04-30 18:20 | 50.79962 | 8.31927 | 23361 ft | 417 kts | 148° |
| 2026-04-30 18:20 | 50.77404 | 8.34093 | 23362 ft | 417 kts | 148° |
| 2026-04-30 18:20 | 50.74848 | 8.36261 | 23361 ft | 417 kts | 148° |
| 2026-04-30 18:20 | 50.72293 | 8.38432 | 23360 ft | 417 kts | 148° |
| 2026-04-30 18:21 | 50.69750 | 8.40594 | 23355 ft | 417 kts | 148° |
| 2026-04-30 18:21 | 50.67194 | 8.42761 | 23367 ft | 416 kts | 148° |
| 2026-04-30 18:21 | 50.64638 | 8.44924 | 23365 ft | 417 kts | 148° |
| 2026-04-30 18:21 | 50.62081 | 8.47084 | 23359 ft | 417 kts | 148° |
| 2026-04-30 18:22 | 50.59524 | 8.49245 | 23358 ft | 417 kts | 148° |
| 2026-04-30 18:22 | 50.54402 | 8.53565 | 23356 ft | 418 kts | 148° |
| 2026-04-30 18:22 | 50.51834 | 8.55728 | 23354 ft | 419 kts | 148° |
| 2026-04-30 18:23 | 50.49263 | 8.57885 | 23361 ft | 419 kts | 148° |
| 2026-04-30 18:23 | 50.46688 | 8.60043 | 23350 ft | 419 kts | 148° |
| 2026-04-30 18:23 | 50.44209 | 8.62411 | 23349 ft | 415 kts | 140° |
| 2026-04-30 18:23 | 50.41996 | 8.65291 | 23350 ft | 413 kts | 135° |
| 2026-04-30 18:24 | 50.37673 | 8.71224 | 23353 ft | 413 kts | 135° |
| 2026-04-30 18:24 | 50.35508 | 8.74175 | 23351 ft | 413 kts | 135° |
| 2026-04-30 18:24 | 50.33333 | 8.77127 | 23352 ft | 413 kts | 135° |
| 2026-04-30 18:25 | 50.31163 | 8.80071 | 23359 ft | 413 kts | 135° |
| 2026-04-30 18:25 | 50.27584 | 8.86950 | 23353 ft | 406 kts | 116° |
| 2026-04-30 18:25 | 50.26409 | 8.90941 | 23352 ft | 401 kts | 108° |
| 2026-04-30 18:26 | 50.24589 | 8.98895 | 23362 ft | 392 kts | 106° |